Time,TemperatureF,DewpointF,PressureIn,WindDirection,WindDirectionDegrees,WindSpeedMPH,WindSpeedGustMPH,Humidity,HourlyPrecipIn,Conditions,Clouds,dailyrainin,SoftwareType,DateUTC
2013-03-02 00:03:00,44.3,36.5,29.99,WNW,293,1.6,2.5,74,0.00,,,0.00,WUHU216HW,2013-03-02 05:03:00,
2013-03-02 00:08:00,44.1,36.4,30.00,North,0,0.0,2.5,74,0.00,,,0.00,WUHU216HW,2013-03-02 05:08:00,
2013-03-02 00:13:00,43.9,36.2,30.00,West,270,0.9,2.7,74,0.00,,,0.00,WUHU216HW,2013-03-02 05:13:00,
2013-03-02 00:18:00,43.9,36.2,30.00,NW,315,0.4,3.4,74,0.00,,,0.00,WUHU216HW,2013-03-02 05:18:00,
2013-03-02 00:23:00,43.9,36.2,30.00,West,270,2.5,3.4,74,0.00,,,0.00,WUHU216HW,2013-03-02 05:23:00,
2013-03-02 00:28:00,43.9,36.2,30.00,West,270,2.2,2.5,74,0.00,,,0.00,WUHU216HW,2013-03-02 05:28:00,
2013-03-02 00:33:00,43.9,36.2,30.00,West,270,1.6,2.2,74,0.00,,,0.00,WUHU216HW,2013-03-02 05:33:00,
2013-03-02 00:38:00,43.6,35.5,30.01,North,0,0.4,1.6,73,0.00,,,0.00,WUHU216HW,2013-03-02 05:38:00,
2013-03-02 00:43:00,43.6,35.5,30.01,North,0,0.0,1.1,73,0.00,,,0.00,WUHU216HW,2013-03-02 05:43:00,
2013-03-02 00:49:00,43.2,35.5,30.01,North,0,0.0,0.9,74,0.00,,,0.00,WUHU216HW,2013-03-02 05:49:00,
2013-03-02 00:54:00,43.2,35.5,30.01,North,0,0.0,0.4,74,0.00,,,0.00,WUHU216HW,2013-03-02 05:54:00,
2013-03-02 00:59:00,43.0,35.3,30.01,NNW,338,0.2,0.9,74,0.00,,,0.00,WUHU216HW,2013-03-02 05:59:00,
2013-03-02 01:04:00,42.8,35.1,30.01,North,0,0.0,0.9,74,0.00,,,0.00,WUHU216HW,2013-03-02 06:04:00,
2013-03-02 01:09:00,42.8,35.1,30.01,East,90,0.0,0.4,74,0.00,,,0.00,WUHU216HW,2013-03-02 06:09:00,
2013-03-02 01:14:00,42.7,34.9,30.01,ESE,113,0.0,0.0,74,0.00,,,0.00,WUHU216HW,2013-03-02 06:14:00,
2013-03-02 01:19:00,42.5,34.7,30.01,ESE,113,0.0,0.0,74,0.00,,,0.00,WUHU216HW,2013-03-02 06:19:00,
2013-03-02 01:24:00,42.3,34.6,30.01,ESE,113,0.0,0.0,74,0.00,,,0.00,WUHU216HW,2013-03-02 06:24:00,
2013-03-02 01:29:00,42.1,34.4,30.01,ESE,113,0.0,0.0,74,0.00,,,0.00,WUHU216HW,2013-03-02 06:29:00,
2013-03-02 01:34:00,42.1,34.4,30.01,ENE,68,0.0,0.0,74,0.00,,,0.00,WUHU216HW,2013-03-02 06:34:00,
2013-03-02 01:39:00,41.8,34.0,30.01,ENE,68,0.0,0.0,74,0.00,,,0.00,WUHU216HW,2013-03-02 06:39:00,
2013-03-02 01:44:00,41.6,33.8,30.00,ENE,68,0.0,0.0,74,0.00,,,0.00,WUHU216HW,2013-03-02 06:44:00,
2013-03-02 01:49:00,41.4,33.7,30.00,ENE,68,0.0,0.0,74,0.00,,,0.00,WUHU216HW,2013-03-02 06:49:00,
2013-03-02 01:54:00,41.2,33.5,30.01,ENE,68,0.0,0.0,74,0.00,,,0.00,WUHU216HW,2013-03-02 06:54:00,
2013-03-02 01:59:00,41.0,33.7,30.01,ENE,68,0.0,0.0,75,0.00,,,0.00,WUHU216HW,2013-03-02 06:59:00,
2013-03-02 02:04:00,40.9,33.5,30.00,ENE,68,0.0,0.0,75,0.00,,,0.00,WUHU216HW,2013-03-02 07:04:00,
2013-03-02 02:09:00,40.7,33.3,30.00,ENE,68,0.0,0.0,75,0.00,,,0.00,WUHU216HW,2013-03-02 07:09:00,
2013-03-02 02:14:00,40.3,33.3,30.00,ENE,68,0.0,0.0,76,0.00,,,0.00,WUHU216HW,2013-03-02 07:14:00,
2013-03-02 02:19:00,40.1,33.1,30.00,ENE,68,0.0,0.0,76,0.00,,,0.00,WUHU216HW,2013-03-02 07:19:00,
2013-03-02 02:24:00,40.0,32.9,30.00,NE,45,0.0,0.0,76,0.00,,,0.00,WUHU216HW,2013-03-02 07:24:00,
2013-03-02 02:29:00,39.8,33.1,29.99,NE,45,0.0,0.0,77,0.00,,,0.00,WUHU216HW,2013-03-02 07:29:00,
2013-03-02 02:34:00,39.4,32.8,29.99,NE,45,0.0,0.0,77,0.00,,,0.00,WUHU216HW,2013-03-02 07:34:00,
2013-03-02 02:39:00,39.2,32.7,29.99,NE,45,0.0,0.0,77,0.00,,,0.00,WUHU216HW,2013-03-02 07:39:00,
2013-03-02 02:44:00,39.1,32.5,29.98,NE,45,0.0,0.0,77,0.00,,,0.00,WUHU216HW,2013-03-02 07:44:00,
2013-03-02 02:49:00,39.1,32.8,29.99,NE,45,0.0,0.0,78,0.00,,,0.00,WUHU216HW,2013-03-02 07:49:00,
2013-03-02 02:54:00,38.9,32.6,29.98,NE,45,0.0,0.0,78,0.00,,,0.00,WUHU216HW,2013-03-02 07:54:00,
2013-03-02 02:59:00,38.9,32.6,29.98,NE,45,0.0,0.0,78,0.00,,,0.00,WUHU216HW,2013-03-02 07:59:00,
2013-03-02 03:04:00,38.7,32.5,29.98,NE,45,0.0,0.0,78,0.00,,,0.00,WUHU216HW,2013-03-02 08:04:00,
2013-03-02 03:09:00,38.7,32.8,29.98,NW,315,0.0,0.0,79,0.00,,,0.00,WUHU216HW,2013-03-02 08:09:00,
2013-03-02 03:14:00,38.7,32.8,29.98,WNW,293,0.0,0.0,79,0.00,,,0.00,WUHU216HW,2013-03-02 08:14:00,
2013-03-02 03:19:00,38.5,32.6,29.98,WNW,293,0.0,0.0,79,0.00,,,0.00,WUHU216HW,2013-03-02 08:19:00,
2013-03-02 03:24:00,38.5,32.6,29.98,WNW,293,0.0,0.0,79,0.00,,,0.00,WUHU216HW,2013-03-02 08:24:00,
2013-03-02 03:29:00,38.5,32.6,29.98,WNW,293,0.0,0.0,79,0.00,,,0.00,WUHU216HW,2013-03-02 08:29:00,
2013-03-02 03:34:00,38.2,32.0,29.98,WNW,293,0.0,0.0,78,0.00,,,0.00,WUHU216HW,2013-03-02 08:34:00,
2013-03-02 03:39:00,38.0,32.0,29.98,WNW,293,0.0,0.0,79,0.00,,,0.00,WUHU216HW,2013-03-02 08:39:00,
2013-03-02 03:44:00,38.0,32.4,29.98,WNW,293,0.0,0.0,80,0.00,,,0.00,WUHU216HW,2013-03-02 08:44:00,
2013-03-02 03:49:00,38.0,32.4,29.98,WNW,293,0.0,0.0,80,0.00,,,0.00,WUHU216HW,2013-03-02 08:49:00,
2013-03-02 03:54:00,37.8,32.2,29.98,WNW,293,0.0,0.0,80,0.00,,,0.00,WUHU216HW,2013-03-02 08:54:00,
2013-03-02 03:59:00,37.8,32.2,29.98,WNW,293,0.0,0.0,80,0.00,,,0.00,WUHU216HW,2013-03-02 08:59:00,
2013-03-02 04:04:00,37.8,32.2,29.98,WNW,293,0.0,0.0,80,0.00,,,0.00,WUHU216HW,2013-03-02 09:04:00,
2013-03-02 04:09:00,37.8,32.2,29.98,WNW,293,0.0,0.0,80,0.00,,,0.00,WUHU216HW,2013-03-02 09:09:00,
2013-03-02 04:14:00,37.6,32.0,29.98,WNW,293,0.0,0.0,80,0.00,,,0.00,WUHU216HW,2013-03-02 09:14:00,
2013-03-02 04:19:00,37.6,32.3,29.98,WNW,293,0.0,0.0,81,0.00,,,0.00,WUHU216HW,2013-03-02 09:19:00,
2013-03-02 04:24:00,37.4,31.9,29.98,WNW,293,0.0,0.0,80,0.00,,,0.00,WUHU216HW,2013-03-02 09:24:00,
2013-03-02 04:29:00,37.4,32.1,29.98,WNW,293,0.0,0.0,81,0.00,,,0.00,WUHU216HW,2013-03-02 09:29:00,
2013-03-02 04:34:00,37.4,32.1,29.98,WNW,293,0.0,0.0,81,0.00,,,0.00,WUHU216HW,2013-03-02 09:34:00,
2013-03-02 04:39:00,37.4,32.1,29.98,WNW,293,0.0,0.0,81,0.00,,,0.00,WUHU216HW,2013-03-02 09:39:00,
2013-03-02 04:44:00,37.4,32.1,29.98,WSW,248,0.4,0.4,81,0.00,,,0.00,WUHU216HW,2013-03-02 09:44:00,
2013-03-02 04:49:00,37.4,32.1,29.98,WNW,293,0.0,0.4,81,0.00,,,0.00,WUHU216HW,2013-03-02 09:49:00,
2013-03-02 04:54:00,37.3,32.2,29.98,North,0,0.0,0.0,82,0.00,,,0.00,WUHU216HW,2013-03-02 09:54:00,
2013-03-02 04:59:00,37.1,32.0,29.98,North,0,0.0,0.0,82,0.00,,,0.00,WUHU216HW,2013-03-02 09:59:00,
2013-03-02 05:04:00,36.9,31.9,29.98,North,0,0.0,0.0,82,0.00,,,0.00,WUHU216HW,2013-03-02 10:04:00,
2013-03-02 05:09:00,36.7,31.7,29.98,North,0,0.0,0.0,82,0.00,,,0.00,WUHU216HW,2013-03-02 10:09:00,
2013-03-02 05:14:00,36.7,31.7,29.98,North,0,0.0,0.0,82,0.00,,,0.00,WUHU216HW,2013-03-02 10:14:00,
2013-03-02 05:19:00,36.5,31.9,29.98,North,0,0.0,0.0,83,0.00,,,0.00,WUHU216HW,2013-03-02 10:19:00,
2013-03-02 05:24:00,36.5,31.9,29.98,North,0,0.0,0.0,83,0.00,,,0.00,WUHU216HW,2013-03-02 10:24:00,
2013-03-02 05:29:00,36.4,31.7,29.98,North,0,0.0,0.0,83,0.00,,,0.00,WUHU216HW,2013-03-02 10:29:00,
2013-03-02 05:34:00,36.4,31.7,29.98,North,0,0.0,0.0,83,0.00,,,0.00,WUHU216HW,2013-03-02 10:34:00,
2013-03-02 05:40:00,36.4,31.7,29.98,North,0,0.0,0.0,83,0.00,,,0.00,WUHU216HW,2013-03-02 10:40:00,
2013-03-02 05:45:00,36.4,31.7,29.98,NNE,23,0.0,0.0,83,0.00,,,0.00,WUHU216HW,2013-03-02 10:45:00,
2013-03-02 05:50:00,36.4,32.0,29.98,NNE,23,0.0,0.0,84,0.00,,,0.00,WUHU216HW,2013-03-02 10:50:00,
2013-03-02 05:55:00,36.4,32.0,29.98,NNW,338,0.7,0.7,84,0.00,,,0.00,WUHU216HW,2013-03-02 10:55:00,
2013-03-02 06:00:00,36.4,32.0,29.98,NNW,338,0.0,0.7,84,0.00,,,0.00,WUHU216HW,2013-03-02 11:00:00,
2013-03-02 06:05:00,36.4,32.0,29.98,West,270,0.7,1.1,84,0.00,,,0.00,WUHU216HW,2013-03-02 11:05:00,
2013-03-02 06:10:00,36.4,32.0,29.98,WSW,248,0.9,1.1,84,0.00,,,0.00,WUHU216HW,2013-03-02 11:10:00,
2013-03-02 06:15:00,36.4,32.0,29.98,NW,315,1.1,1.8,84,0.00,,,0.00,WUHU216HW,2013-03-02 11:15:00,
2013-03-02 06:20:00,36.7,32.3,29.98,NW,315,0.4,1.8,84,0.00,,,0.00,WUHU216HW,2013-03-02 11:20:00,
2013-03-02 06:25:00,36.9,32.5,29.98,WNW,293,0.7,1.3,84,0.00,,,0.00,WUHU216HW,2013-03-02 11:25:00,
2013-03-02 06:30:00,36.9,32.5,29.98,NE,45,0.4,0.9,84,0.00,,,0.00,WUHU216HW,2013-03-02 11:30:00,
2013-03-02 06:35:00,36.7,32.3,29.97,NE,45,0.0,0.9,84,0.00,,,0.00,WUHU216HW,2013-03-02 11:35:00,
2013-03-02 06:40:00,36.5,32.1,29.97,NE,45,0.0,0.0,84,0.00,,,0.00,WUHU216HW,2013-03-02 11:40:00,
2013-03-02 06:45:00,36.5,32.1,29.97,NE,45,0.0,0.0,84,0.00,,,0.00,WUHU216HW,2013-03-02 11:45:00,
2013-03-02 06:50:00,36.4,32.0,29.97,NE,45,0.0,0.0,84,0.00,,,0.00,WUHU216HW,2013-03-02 11:50:00,
2013-03-02 06:55:00,36.4,32.0,29.97,NE,45,0.0,0.0,84,0.00,,,0.00,WUHU216HW,2013-03-02 11:55:00,
2013-03-02 07:00:00,36.4,32.0,29.97,NE,45,0.0,0.0,84,0.00,,,0.00,WUHU216HW,2013-03-02 12:00:00,
2013-03-02 07:05:00,36.4,32.0,29.97,NNE,23,0.0,0.0,84,0.00,,,0.00,WUHU216HW,2013-03-02 12:05:00,
2013-03-02 07:10:00,36.4,32.0,29.97,West,270,0.0,0.0,84,0.00,,,0.00,WUHU216HW,2013-03-02 12:10:00,
2013-03-02 07:15:00,36.4,32.0,29.97,West,270,0.0,0.0,84,0.00,,,0.00,WUHU216HW,2013-03-02 12:15:00,
2013-03-02 07:20:00,36.4,32.0,29.97,NNE,23,0.0,0.0,84,0.00,,,0.00,WUHU216HW,2013-03-02 12:20:00,
2013-03-02 07:25:00,36.4,32.0,29.98,East,90,0.0,0.0,84,0.00,,,0.00,WUHU216HW,2013-03-02 12:25:00,
2013-03-02 07:30:00,36.5,32.1,29.97,NE,45,0.0,0.0,84,0.00,,,0.00,WUHU216HW,2013-03-02 12:30:00,
2013-03-02 07:35:00,36.7,32.3,29.97,NNE,23,0.0,0.0,84,0.00,,,0.00,WUHU216HW,2013-03-02 12:35:00,
2013-03-02 07:40:00,37.1,32.7,29.97,NW,315,0.4,1.1,84,0.00,,,0.00,WUHU216HW,2013-03-02 12:40:00,
2013-03-02 07:45:00,37.8,33.4,29.98,West,270,2.0,2.0,84,0.00,,,0.00,WUHU216HW,2013-03-02 12:45:00,
2013-03-02 07:50:00,38.2,33.8,29.98,West,270,0.7,2.7,84,0.00,,,0.00,WUHU216HW,2013-03-02 12:50:00,
2013-03-02 07:55:00,38.7,34.3,29.98,WSW,248,1.1,2.7,84,0.00,,,0.00,WUHU216HW,2013-03-02 12:55:00,
2013-03-02 08:00:00,39.1,34.7,29.98,West,270,0.7,2.9,84,0.00,,,0.00,WUHU216HW,2013-03-02 13:00:00,
2013-03-02 08:05:00,39.6,34.8,29.98,West,270,2.7,3.4,83,0.00,,,0.00,WUHU216HW,2013-03-02 13:05:00,
2013-03-02 08:10:00,40.5,35.7,29.98,West,270,1.8,3.4,83,0.00,,,0.00,WUHU216HW,2013-03-02 13:10:00,
2013-03-02 08:15:00,41.6,36.5,29.98,WSW,248,2.7,2.9,82,0.00,,,0.00,WUHU216HW,2013-03-02 13:15:00,
2013-03-02 08:20:00,42.7,37.2,29.98,West,270,1.8,4.0,81,0.00,,,0.00,WUHU216HW,2013-03-02 13:20:00,
2013-03-02 08:25:00,43.2,37.4,29.98,West,270,0.9,4.0,80,0.00,,,0.00,WUHU216HW,2013-03-02 13:25:00,
2013-03-02 08:30:00,43.6,37.4,29.98,NW,315,1.3,3.6,79,0.00,,,0.00,WUHU216HW,2013-03-02 13:30:00,
2013-03-02 08:35:00,44.3,37.5,29.99,NW,315,2.5,3.8,77,0.00,,,0.00,WUHU216HW,2013-03-02 13:35:00,
2013-03-02 08:40:00,44.3,37.5,29.99,West,270,1.6,6.9,77,0.00,,,0.00,WUHU216HW,2013-03-02 13:40:00,
2013-03-02 08:45:00,44.8,37.7,29.98,North,0,1.6,6.9,76,0.00,,,0.00,WUHU216HW,2013-03-02 13:45:00,
2013-03-02 08:50:00,45.0,37.5,29.99,NNW,338,1.1,3.4,75,0.00,,,0.00,WUHU216HW,2013-03-02 13:50:00,
2013-03-02 08:55:00,45.5,38.1,29.99,North,0,0.9,6.9,75,0.00,,,0.00,WUHU216HW,2013-03-02 13:55:00,
2013-03-02 09:00:00,45.9,38.1,29.99,SSW,203,2.7,6.9,74,0.00,,,0.00,WUHU216HW,2013-03-02 14:00:00,
2013-03-02 09:05:00,45.9,37.5,29.99,North,0,2.0,6.3,72,0.00,,,0.00,WUHU216HW,2013-03-02 14:05:00,
2013-03-02 09:10:00,45.9,37.5,29.99,WNW,293,3.6,6.3,72,0.00,,,0.00,WUHU216HW,2013-03-02 14:10:00,
2013-03-02 09:15:00,45.7,37.3,29.99,North,0,1.6,6.9,72,0.00,,,0.00,WUHU216HW,2013-03-02 14:15:00,
2013-03-02 09:20:00,46.1,37.6,29.99,WSW,248,3.4,6.9,72,0.00,,,0.00,WUHU216HW,2013-03-02 14:20:00,
2013-03-02 09:25:00,46.3,37.5,29.99,NW,315,2.7,7.8,71,0.00,,,0.00,WUHU216HW,2013-03-02 14:25:00,
2013-03-02 09:30:00,46.8,37.9,29.99,SW,225,1.8,7.8,71,0.00,,,0.00,WUHU216HW,2013-03-02 14:30:00,
2013-03-02 09:35:00,47.0,37.4,29.99,North,0,1.6,4.3,69,0.00,,,0.00,WUHU216HW,2013-03-02 14:35:00,
2013-03-02 09:40:00,47.5,37.9,29.99,WNW,293,1.3,9.8,69,0.00,,,0.00,WUHU216HW,2013-03-02 14:40:00,
2013-03-02 09:45:00,47.9,37.5,29.99,West,270,4.7,9.8,67,0.00,,,0.00,WUHU216HW,2013-03-02 14:45:00,
2013-03-02 09:50:00,48.1,37.2,29.99,West,270,6.7,6.7,66,0.00,,,0.00,WUHU216HW,2013-03-02 14:50:00,
2013-03-02 09:55:00,48.6,37.7,30.00,SSW,203,5.1,6.7,66,0.00,,,0.00,WUHU216HW,2013-03-02 14:55:00,
2013-03-02 10:00:00,48.6,37.0,30.00,ESE,113,0.4,5.1,64,0.00,,,0.00,WUHU216HW,2013-03-02 15:00:00,
2013-03-02 10:05:00,49.1,37.4,29.99,West,270,3.1,5.4,64,0.00,,,0.00,WUHU216HW,2013-03-02 15:05:00,
2013-03-02 10:10:00,49.5,37.5,29.99,North,0,2.5,7.6,63,0.00,,,0.00,WUHU216HW,2013-03-02 15:10:00,
2013-03-02 10:15:00,49.7,38.0,29.99,West,270,5.6,9.2,64,0.00,,,0.00,WUHU216HW,2013-03-02 15:15:00,
2013-03-02 10:20:00,49.5,37.5,30.00,North,0,2.9,9.2,63,0.00,,,0.00,WUHU216HW,2013-03-02 15:20:00,
2013-03-02 10:25:00,49.9,38.2,29.99,WNW,293,0.9,6.9,64,0.00,,,0.00,WUHU216HW,2013-03-02 15:25:00,
2013-03-02 10:30:00,50.6,38.4,29.99,WSW,248,3.1,6.9,63,0.00,,,0.00,WUHU216HW,2013-03-02 15:30:00,
2013-03-02 10:35:00,51.1,37.7,29.99,NNW,338,2.0,6.0,60,0.00,,,0.00,WUHU216HW,2013-03-02 15:35:00,
2013-03-02 10:40:00,50.8,36.5,29.99,NW,315,2.0,6.7,58,0.00,,,0.00,WUHU216HW,2013-03-02 15:40:00,
2013-03-02 10:45:00,49.9,35.2,29.99,West,270,6.0,7.2,57,0.00,,,0.00,WUHU216HW,2013-03-02 15:45:00,
2013-03-02 10:50:00,49.3,36.1,30.00,WSW,248,5.6,7.2,60,0.00,,,0.00,WUHU216HW,2013-03-02 15:50:00,
2013-03-02 10:55:00,50.8,37.8,29.99,West,270,5.4,9.2,61,0.00,,,0.00,WUHU216HW,2013-03-02 15:55:00,
2013-03-02 11:00:00,50.6,35.8,29.99,West,270,5.8,10.5,57,0.00,,,0.00,WUHU216HW,2013-03-02 16:00:00,
2013-03-02 11:05:00,50.6,36.3,29.99,West,270,6.3,10.5,58,0.00,,,0.00,WUHU216HW,2013-03-02 16:05:00,
2013-03-02 11:10:00,51.8,36.1,29.99,WNW,293,8.5,8.5,55,0.00,,,0.00,WUHU216HW,2013-03-02 16:10:00,
2013-03-02 11:15:00,51.3,35.2,29.99,WSW,248,3.4,10.1,54,0.00,,,0.00,WUHU216HW,2013-03-02 16:15:00,
2013-03-02 11:20:00,50.9,34.8,29.99,West,270,6.0,10.1,54,0.00,,,0.00,WUHU216HW,2013-03-02 16:20:00,
2013-03-02 11:25:00,51.5,35.3,29.99,West,270,5.6,8.7,54,0.00,,,0.00,WUHU216HW,2013-03-02 16:25:00,
2013-03-02 11:30:00,51.3,34.8,29.99,WNW,293,8.1,8.1,53,0.00,,,0.00,WUHU216HW,2013-03-02 16:30:00,
2013-03-02 11:35:00,50.6,34.0,29.99,NW,315,5.6,8.1,53,0.00,,,0.00,WUHU216HW,2013-03-02 16:35:00,
2013-03-02 11:40:00,49.9,32.5,29.99,West,270,8.1,8.1,51,0.00,,,0.00,WUHU216HW,2013-03-02 16:40:00,
2013-03-02 11:45:00,50.4,33.9,29.98,West,270,1.1,8.5,53,0.00,,,0.00,WUHU216HW,2013-03-02 16:45:00,
2013-03-02 11:50:00,50.8,34.2,29.98,West,270,4.7,8.5,53,0.00,,,0.00,WUHU216HW,2013-03-02 16:50:00,
2013-03-02 11:55:00,50.4,33.5,29.98,SW,225,6.0,7.2,52,0.00,,,0.00,WUHU216HW,2013-03-02 16:55:00,
2013-03-02 12:00:00,50.4,33.9,29.98,WNW,293,4.3,7.2,53,0.00,,,0.00,WUHU216HW,2013-03-02 17:00:00,
2013-03-02 12:05:00,50.0,33.6,29.98,West,270,6.7,9.8,53,0.00,,,0.00,WUHU216HW,2013-03-02 17:05:00,
2013-03-02 12:10:00,49.7,33.2,29.98,WNW,293,6.3,9.8,53,0.00,,,0.00,WUHU216HW,2013-03-02 17:10:00,
2013-03-02 12:15:00,49.5,32.6,29.98,West,270,10.5,10.5,52,0.00,,,0.00,WUHU216HW,2013-03-02 17:15:00,
2013-03-02 12:20:00,49.7,33.2,29.98,WSW,248,1.6,10.5,53,0.00,,,0.00,WUHU216HW,2013-03-02 17:20:00,
2013-03-02 12:25:00,50.4,33.9,29.98,WSW,248,5.1,7.4,53,0.00,,,0.00,WUHU216HW,2013-03-02 17:25:00,
2013-03-02 12:30:00,50.6,33.6,29.98,WNW,293,3.8,8.3,52,0.00,,,0.00,WUHU216HW,2013-03-02 17:30:00,
2013-03-02 12:35:00,50.0,33.1,29.98,North,0,6.9,11.6,52,0.00,,,0.00,WUHU216HW,2013-03-02 17:35:00,
2013-03-02 12:40:00,50.0,32.7,29.98,WSW,248,10.5,11.6,51,0.00,,,0.00,WUHU216HW,2013-03-02 17:40:00,
2013-03-02 12:45:00,50.0,33.1,29.98,West,270,7.6,10.5,52,0.00,,,0.00,WUHU216HW,2013-03-02 17:45:00,
2013-03-02 12:50:00,49.9,32.9,29.98,NW,315,3.8,10.1,52,0.00,,,0.00,WUHU216HW,2013-03-02 17:50:00,
2013-03-02 12:55:00,50.0,31.7,29.98,NNW,338,1.6,10.5,49,0.00,,,0.00,WUHU216HW,2013-03-02 17:55:00,
2013-03-02 13:00:00,49.9,31.5,29.97,WSW,248,2.9,10.5,49,0.00,,,0.00,WUHU216HW,2013-03-02 18:00:00,
2013-03-02 13:05:00,50.0,32.7,29.97,West,270,9.4,9.8,51,0.00,,,0.00,WUHU216HW,2013-03-02 18:05:00,
2013-03-02 13:10:00,49.7,32.3,29.97,NNW,338,7.6,9.8,51,0.00,,,0.00,WUHU216HW,2013-03-02 18:10:00,
2013-03-02 13:15:00,49.5,32.1,29.97,West,270,7.8,8.1,51,0.00,,,0.00,WUHU216HW,2013-03-02 18:15:00,
2013-03-02 13:20:00,49.5,31.7,29.97,NNE,23,3.4,9.2,50,0.00,,,0.00,WUHU216HW,2013-03-02 18:20:00,
2013-03-02 13:25:00,49.7,31.3,29.97,WNW,293,2.5,9.2,49,0.00,,,0.00,WUHU216HW,2013-03-02 18:25:00,
2013-03-02 13:30:00,49.7,31.9,29.97,NNW,338,0.9,7.8,50,0.00,,,0.00,WUHU216HW,2013-03-02 18:30:00,
2013-03-02 13:35:00,49.3,31.0,29.96,SSW,203,1.8,6.7,49,0.00,,,0.00,WUHU216HW,2013-03-02 18:35:00,
2013-03-02 13:40:00,49.1,31.3,29.96,WSW,248,3.6,6.7,50,0.00,,,0.00,WUHU216HW,2013-03-02 18:40:00,
2013-03-02 13:45:00,49.0,31.6,29.96,WSW,248,6.3,8.1,51,0.00,,,0.00,WUHU216HW,2013-03-02 18:45:00,
2013-03-02 13:50:00,49.1,31.3,29.96,West,270,3.8,8.1,50,0.00,,,0.00,WUHU216HW,2013-03-02 18:50:00,
2013-03-02 13:55:00,49.3,31.5,29.96,NW,315,5.1,6.7,50,0.00,,,0.00,WUHU216HW,2013-03-02 18:55:00,
2013-03-02 14:00:00,49.1,31.3,29.95,WNW,293,6.5,9.2,50,0.00,,,0.00,WUHU216HW,2013-03-02 19:00:00,
2013-03-02 14:05:00,49.1,31.3,29.95,West,270,6.3,13.0,50,0.00,,,0.00,WUHU216HW,2013-03-02 19:05:00,
2013-03-02 14:10:00,49.3,32.0,29.96,West,270,1.8,13.0,51,0.00,,,0.00,WUHU216HW,2013-03-02 19:10:00,
2013-03-02 14:15:00,49.1,31.3,29.96,WSW,248,2.5,6.5,50,0.00,,,0.00,WUHU216HW,2013-03-02 19:15:00,
2013-03-02 14:20:00,49.0,31.6,29.96,North,0,2.5,8.5,51,0.00,,,0.00,WUHU216HW,2013-03-02 19:20:00,
2013-03-02 14:25:00,49.5,32.6,29.95,WSW,248,4.3,8.5,52,0.00,,,0.00,WUHU216HW,2013-03-02 19:25:00,
2013-03-02 14:30:00,49.5,32.6,29.95,West,270,6.0,6.0,52,0.00,,,0.00,WUHU216HW,2013-03-02 19:30:00,
2013-03-02 14:35:00,49.3,32.0,29.95,NW,315,2.5,11.0,51,0.00,,,0.00,WUHU216HW,2013-03-02 19:35:00,
2013-03-02 14:40:00,49.3,32.0,29.95,WSW,248,2.5,11.0,51,0.00,,,0.00,WUHU216HW,2013-03-02 19:40:00,
2013-03-02 14:45:00,49.3,32.0,29.95,West,270,2.2,6.7,51,0.00,,,0.00,WUHU216HW,2013-03-02 19:45:00,
2013-03-02 14:50:00,49.1,32.2,29.95,NNW,338,1.6,8.5,52,0.00,,,0.00,WUHU216HW,2013-03-02 19:50:00,
2013-03-02 14:55:00,49.3,32.4,29.95,West,270,6.3,8.5,52,0.00,,,0.00,WUHU216HW,2013-03-02 19:55:00,
2013-03-02 15:00:00,49.3,32.4,29.95,NE,45,1.6,8.3,52,0.00,,,0.00,WUHU216HW,2013-03-02 20:00:00,
2013-03-02 15:05:00,49.3,32.0,29.95,NNW,338,4.7,12.5,51,0.00,,,0.00,WUHU216HW,2013-03-02 20:05:00,
2013-03-02 15:10:00,49.3,31.5,29.95,NW,315,6.9,12.5,50,0.00,,,0.00,WUHU216HW,2013-03-02 20:10:00,
2013-03-02 15:15:00,49.3,32.0,29.95,West,270,4.0,9.6,51,0.00,,,0.00,WUHU216HW,2013-03-02 20:15:00,
2013-03-02 15:20:00,49.3,31.5,29.95,South,180,3.4,9.6,50,0.00,,,0.00,WUHU216HW,2013-03-02 20:20:00,
2013-03-02 15:25:00,49.3,31.5,29.95,West,270,9.6,9.6,50,0.00,,,0.00,WUHU216HW,2013-03-02 20:25:00,
2013-03-02 15:30:00,49.1,31.3,29.95,North,0,6.3,9.6,50,0.00,,,0.00,WUHU216HW,2013-03-02 20:30:00,
2013-03-02 15:35:00,49.1,31.8,29.95,West,270,8.9,10.7,51,0.00,,,0.00,WUHU216HW,2013-03-02 20:35:00,
2013-03-02 15:40:00,49.1,31.3,29.95,West,270,13.6,13.6,50,0.00,,,0.00,WUHU216HW,2013-03-02 20:40:00,
2013-03-02 15:45:00,49.1,31.3,29.95,West,270,4.3,13.6,50,0.00,,,0.00,WUHU216HW,2013-03-02 20:45:00,
2013-03-02 15:50:00,49.1,31.8,29.95,NNW,338,6.3,8.5,51,0.00,,,0.00,WUHU216HW,2013-03-02 20:50:00,
2013-03-02 15:55:00,49.1,31.8,29.95,North,0,1.1,6.3,51,0.00,,,0.00,WUHU216HW,2013-03-02 20:55:00,
2013-03-02 16:00:00,49.0,31.6,29.95,West,270,4.5,6.9,51,0.00,,,0.00,WUHU216HW,2013-03-02 21:00:00,
2013-03-02 16:05:00,48.8,31.9,29.95,SW,225,9.2,11.2,52,0.00,,,0.00,WUHU216HW,2013-03-02 21:05:00,
2013-03-02 16:10:00,48.8,31.4,29.95,WNW,293,5.1,11.2,51,0.00,,,0.00,WUHU216HW,2013-03-02 21:10:00,
2013-03-02 16:18:00,48.4,31.5,29.95,NW,315,2.9,11.9,52,0.00,,,0.00,WUHU216HW,2013-03-02 21:18:00,
2013-03-02 16:23:00,48.4,31.5,29.95,West,270,5.8,8.9,52,0.00,,,0.00,WUHU216HW,2013-03-02 21:23:00,
2013-03-02 16:28:00,48.6,31.2,29.96,WSW,248,3.4,8.9,51,0.00,,,0.00,WUHU216HW,2013-03-02 21:28:00,
2013-03-02 16:33:00,48.4,31.1,29.96,North,0,1.8,7.6,51,0.00,,,0.00,WUHU216HW,2013-03-02 21:33:00,
2013-03-02 16:38:00,48.1,30.7,29.96,North,0,4.0,7.6,51,0.00,,,0.00,WUHU216HW,2013-03-02 21:38:00,
2013-03-02 16:43:00,47.9,30.6,29.96,WNW,293,3.4,12.1,51,0.00,,,0.00,WUHU216HW,2013-03-02 21:43:00,
2013-03-02 16:48:00,47.7,30.4,29.96,SW,225,3.4,12.1,51,0.00,,,0.00,WUHU216HW,2013-03-02 21:48:00,
2013-03-02 16:53:00,47.5,30.3,29.96,SSW,203,2.5,10.7,51,0.00,,,0.00,WUHU216HW,2013-03-02 21:53:00,
2013-03-02 16:58:00,47.5,30.3,29.96,NNW,338,2.9,5.4,51,0.00,,,0.00,WUHU216HW,2013-03-02 21:58:00,
2013-03-02 17:03:00,47.3,30.5,29.97,ENE,68,1.8,5.4,52,0.00,,,0.00,WUHU216HW,2013-03-02 22:03:00,
2013-03-02 17:08:00,47.3,30.5,29.97,West,270,6.9,6.9,52,0.00,,,0.00,WUHU216HW,2013-03-02 22:08:00,
2013-03-02 17:13:00,47.2,30.8,29.97,West,270,0.9,6.9,53,0.00,,,0.00,WUHU216HW,2013-03-02 22:13:00,
2013-03-02 17:18:00,46.8,30.5,29.97,WSW,248,4.5,9.6,53,0.00,,,0.00,WUHU216HW,2013-03-02 22:18:00,
2013-03-02 17:23:00,46.8,30.5,29.97,North,0,7.2,9.6,53,0.00,,,0.00,WUHU216HW,2013-03-02 22:23:00,
2013-03-02 17:28:00,46.6,30.8,29.97,WNW,293,4.5,7.2,54,0.00,,,0.00,WUHU216HW,2013-03-02 22:28:00,
2013-03-02 17:33:00,46.4,30.6,29.97,West,270,2.9,5.4,54,0.00,,,0.00,WUHU216HW,2013-03-02 22:33:00,
2013-03-02 17:38:00,46.4,30.6,29.97,WSW,248,1.1,4.3,54,0.00,,,0.00,WUHU216HW,2013-03-02 22:38:00,
2013-03-02 17:43:00,46.4,31.1,29.97,West,270,2.0,2.7,55,0.00,,,0.00,WUHU216HW,2013-03-02 22:43:00,
2013-03-02 17:48:00,46.4,31.1,29.97,WSW,248,1.8,3.4,55,0.00,,,0.00,WUHU216HW,2013-03-02 22:48:00,
2013-03-02 17:53:00,46.1,30.7,29.97,WNW,293,1.3,3.6,55,0.00,,,0.00,WUHU216HW,2013-03-02 22:53:00,
2013-03-02 17:58:00,45.9,30.6,29.97,West,270,2.5,5.6,55,0.00,,,0.00,WUHU216HW,2013-03-02 22:58:00,
2013-03-02 18:03:00,45.7,30.4,29.97,WSW,248,4.0,5.6,55,0.00,,,0.00,WUHU216HW,2013-03-02 23:03:00,
2013-03-02 18:08:00,45.5,30.7,29.97,West,270,1.6,4.0,56,0.00,,,0.00,WUHU216HW,2013-03-02 23:08:00,
2013-03-02 18:13:00,45.4,30.5,29.98,North,0,1.8,4.0,56,0.00,,,0.00,WUHU216HW,2013-03-02 23:13:00,
2013-03-02 18:18:00,45.2,30.3,29.98,WNW,293,2.7,4.0,56,0.00,,,0.00,WUHU216HW,2013-03-02 23:18:00,
2013-03-02 18:23:00,45.0,30.3,29.98,West,270,4.0,4.0,56,0.00,,,0.00,WUHU216HW,2013-03-02 23:23:00,
2013-03-02 18:28:00,45.0,30.7,29.98,NNW,338,3.1,6.9,57,0.00,,,0.00,WUHU216HW,2013-03-02 23:28:00,
2013-03-02 18:33:00,45.0,30.7,29.98,West,270,4.5,6.9,57,0.00,,,0.00,WUHU216HW,2013-03-02 23:33:00,
2013-03-02 18:38:00,44.8,30.5,29.98,NW,315,0.9,4.5,57,0.00,,,0.00,WUHU216HW,2013-03-02 23:38:00,
2013-03-02 18:43:00,44.6,29.9,29.98,NW,315,0.4,3.6,56,0.00,,,0.00,WUHU216HW,2013-03-02 23:43:00,
2013-03-02 18:48:00,44.6,29.9,29.99,West,270,2.5,3.6,56,0.00,,,0.00,WUHU216HW,2013-03-02 23:48:00,
2013-03-02 18:53:00,44.6,29.9,29.99,West,270,1.3,5.4,56,0.00,,,0.00,WUHU216HW,2013-03-02 23:53:00,
2013-03-02 18:58:00,44.6,30.3,29.99,NNW,338,1.8,5.4,57,0.00,,,0.00,WUHU216HW,2013-03-02 23:58:00,
2013-03-02 19:03:00,44.6,30.3,29.99,West,270,4.5,4.5,57,0.00,,,0.00,WUHU216HW,2013-03-03 00:03:00,
2013-03-02 19:08:00,44.5,30.2,30.00,SW,225,0.0,4.5,57,0.00,,,0.00,WUHU216HW,2013-03-03 00:08:00,
2013-03-02 19:13:00,44.6,30.8,30.00,West,270,2.0,5.4,58,0.00,,,0.00,WUHU216HW,2013-03-03 00:13:00,
2013-03-02 19:18:00,44.5,30.6,30.00,NW,315,2.5,5.4,58,0.00,,,0.00,WUHU216HW,2013-03-03 00:18:00,
2013-03-02 19:23:00,44.5,30.6,30.00,WNW,293,2.0,4.0,58,0.00,,,0.00,WUHU216HW,2013-03-03 00:23:00,
2013-03-02 19:28:00,44.3,30.4,30.00,West,270,2.9,4.0,58,0.00,,,0.00,WUHU216HW,2013-03-03 00:28:00,
2013-03-02 19:33:00,44.3,30.9,30.01,NW,315,0.4,5.1,59,0.00,,,0.00,WUHU216HW,2013-03-03 00:33:00,
2013-03-02 19:38:00,44.3,30.9,30.01,West,270,1.8,5.1,59,0.00,,,0.00,WUHU216HW,2013-03-03 00:38:00,
2013-03-02 19:43:00,44.1,30.7,30.01,WNW,293,0.9,4.7,59,0.00,,,0.00,WUHU216HW,2013-03-03 00:43:00,
2013-03-02 19:48:00,43.9,30.5,30.01,West,270,1.3,4.7,59,0.00,,,0.00,WUHU216HW,2013-03-03 00:48:00,
2013-03-02 19:53:00,43.9,31.0,30.01,West,270,1.8,4.7,60,0.00,,,0.00,WUHU216HW,2013-03-03 00:53:00,
2013-03-02 19:58:00,43.7,30.8,30.01,WSW,248,1.8,4.9,60,0.00,,,0.00,WUHU216HW,2013-03-03 00:58:00,
2013-03-02 20:03:00,43.9,31.0,30.01,NW,315,4.7,4.9,60,0.00,,,0.00,WUHU216HW,2013-03-03 01:03:00,
2013-03-02 20:08:00,43.7,30.8,30.01,West,270,5.4,5.4,60,0.00,,,0.00,WUHU216HW,2013-03-03 01:08:00,
2013-03-02 20:13:00,43.7,30.8,30.01,West,270,1.6,5.4,60,0.00,,,0.00,WUHU216HW,2013-03-03 01:13:00,
2013-03-02 20:18:00,43.9,31.3,30.01,West,270,3.6,3.8,61,0.00,,,0.00,WUHU216HW,2013-03-03 01:18:00,
2013-03-02 20:23:00,43.7,31.1,30.01,WNW,293,2.9,4.7,61,0.00,,,0.00,WUHU216HW,2013-03-03 01:23:00,
2013-03-02 20:28:00,43.7,31.1,30.01,West,270,3.8,4.7,61,0.00,,,0.00,WUHU216HW,2013-03-03 01:28:00,
2013-03-02 20:33:00,43.7,31.1,30.01,WSW,248,2.9,4.0,61,0.00,,,0.00,WUHU216HW,2013-03-03 01:33:00,
2013-03-02 20:38:00,43.7,31.1,30.01,NW,315,2.2,4.0,61,0.00,,,0.00,WUHU216HW,2013-03-03 01:38:00,
2013-03-02 20:43:00,43.7,31.1,30.01,West,270,2.2,2.5,61,0.00,,,0.00,WUHU216HW,2013-03-03 01:43:00,
2013-03-02 20:48:00,43.6,31.4,30.01,West,270,3.8,3.8,62,0.00,,,0.00,WUHU216HW,2013-03-03 01:48:00,
2013-03-02 20:53:00,43.6,31.4,30.01,West,270,2.7,3.8,62,0.00,,,0.00,WUHU216HW,2013-03-03 01:53:00,
2013-03-02 20:58:00,43.6,31.4,30.01,WNW,293,2.2,2.7,62,0.00,,,0.00,WUHU216HW,2013-03-03 01:58:00,
2013-03-02 21:03:00,43.6,31.4,30.01,West,270,2.5,4.5,62,0.00,,,0.00,WUHU216HW,2013-03-03 02:03:00,
2013-03-02 21:08:00,43.6,31.4,30.01,WNW,293,1.8,4.5,62,0.00,,,0.00,WUHU216HW,2013-03-03 02:08:00,
2013-03-02 21:13:00,43.6,31.8,30.02,West,270,1.1,4.0,63,0.00,,,0.00,WUHU216HW,2013-03-03 02:13:00,
2013-03-02 21:18:00,43.4,31.6,30.02,West,270,3.1,4.7,63,0.00,,,0.00,WUHU216HW,2013-03-03 02:18:00,
2013-03-02 21:23:00,43.4,31.6,30.02,WNW,293,2.5,4.7,63,0.00,,,0.00,WUHU216HW,2013-03-03 02:23:00,
2013-03-02 21:28:00,43.4,31.6,30.02,West,270,2.9,4.5,63,0.00,,,0.00,WUHU216HW,2013-03-03 02:28:00,
2013-03-02 21:33:00,43.4,31.6,30.02,NNW,338,1.8,4.0,63,0.00,,,0.00,WUHU216HW,2013-03-03 02:33:00,
2013-03-02 21:38:00,43.2,31.4,30.02,WSW,248,2.9,3.4,63,0.00,,,0.00,WUHU216HW,2013-03-03 02:38:00,
2013-03-02 21:43:00,43.2,31.4,30.02,NNW,338,1.1,3.1,63,0.00,,,0.00,WUHU216HW,2013-03-03 02:43:00,
2013-03-02 21:48:00,43.2,31.4,30.02,WNW,293,0.9,2.9,63,0.00,,,0.00,WUHU216HW,2013-03-03 02:48:00,
2013-03-02 21:53:00,43.0,31.7,30.03,NNW,338,1.3,4.5,64,0.00,,,0.00,WUHU216HW,2013-03-03 02:53:00,
2013-03-02 21:58:00,42.8,31.5,30.02,West,270,2.0,4.5,64,0.00,,,0.00,WUHU216HW,2013-03-03 02:58:00,
2013-03-02 22:03:00,42.8,31.5,30.02,NNW,338,0.0,4.5,64,0.00,,,0.00,WUHU216HW,2013-03-03 03:03:00,
2013-03-02 22:08:00,42.8,31.5,30.03,WSW,248,0.2,2.9,64,0.00,,,0.00,WUHU216HW,2013-03-03 03:08:00,
2013-03-02 22:13:00,42.7,31.7,30.02,NW,315,0.2,2.0,65,0.00,,,0.00,WUHU216HW,2013-03-03 03:13:00,
2013-03-02 22:18:00,42.5,31.5,30.02,West,270,1.8,2.0,65,0.00,,,0.00,WUHU216HW,2013-03-03 03:18:00,
2013-03-02 22:23:00,42.3,31.3,30.02,NW,315,0.9,2.5,65,0.00,,,0.00,WUHU216HW,2013-03-03 03:23:00,
2013-03-02 22:28:00,42.1,31.6,30.02,NW,315,0.2,2.5,66,0.00,,,0.00,WUHU216HW,2013-03-03 03:28:00,
2013-03-02 22:33:00,42.1,31.6,30.02,WNW,293,0.2,2.2,66,0.00,,,0.00,WUHU216HW,2013-03-03 03:33:00,
2013-03-02 22:38:00,41.8,31.2,30.02,WNW,293,0.2,1.1,66,0.00,,,0.00,WUHU216HW,2013-03-03 03:38:00,
2013-03-02 22:43:00,41.6,31.1,30.02,WNW,293,0.7,1.1,66,0.00,,,0.00,WUHU216HW,2013-03-03 03:43:00,
2013-03-02 22:48:00,41.4,30.9,30.02,West,270,0.0,0.9,66,0.00,,,0.00,WUHU216HW,2013-03-03 03:48:00,
2013-03-02 22:53:00,41.2,31.1,30.01,NW,315,0.0,1.1,67,0.00,,,0.00,WUHU216HW,2013-03-03 03:53:00,
2013-03-02 22:58:00,41.0,30.9,30.02,NNE,23,0.2,1.8,67,0.00,,,0.00,WUHU216HW,2013-03-03 03:58:00,
2013-03-02 23:03:00,41.0,30.9,30.01,West,270,0.2,1.8,67,0.00,,,0.00,WUHU216HW,2013-03-03 04:03:00,
2013-03-02 23:08:00,40.9,30.7,30.01,West,270,1.6,2.0,67,0.00,,,0.00,WUHU216HW,2013-03-03 04:08:00,
2013-03-02 23:14:00,40.7,30.5,30.01,WNW,293,1.1,2.2,67,0.00,,,0.00,WUHU216HW,2013-03-03 04:14:00,
2013-03-02 23:19:00,40.7,31.0,30.01,WNW,293,0.4,2.2,68,0.00,,,0.00,WUHU216HW,2013-03-03 04:19:00,
2013-03-02 23:24:00,40.5,30.8,30.01,NW,315,0.4,1.6,68,0.00,,,0.00,WUHU216HW,2013-03-03 04:24:00,
2013-03-02 23:29:00,40.5,31.2,30.01,West,270,0.9,1.6,69,0.00,,,0.00,WUHU216HW,2013-03-03 04:29:00,
2013-03-02 23:34:00,40.1,30.8,30.01,North,0,0.0,1.6,69,0.00,,,0.00,WUHU216HW,2013-03-03 04:34:00,
2013-03-02 23:39:00,39.8,30.4,30.00,North,0,0.0,1.3,69,0.00,,,0.00,WUHU216HW,2013-03-03 04:39:00,
2013-03-02 23:44:00,39.6,30.3,30.00,North,0,0.7,1.8,69,0.00,,,0.00,WUHU216HW,2013-03-03 04:44:00,
2013-03-02 23:49:00,39.4,30.4,30.00,North,0,1.6,1.8,70,0.00,,,0.00,WUHU216HW,2013-03-03 04:49:00,
2013-03-02 23:54:00,39.2,30.2,30.00,SSE,158,1.1,2.0,70,0.00,,,0.00,WUHU216HW,2013-03-03 04:54:00,
2013-03-02 23:59:00,39.2,30.6,30.00,WSW,248,0.9,3.4,71,0.00,,,0.00,WUHU216HW,2013-03-03 04:59:00,